This is the latest recevied weather packets stored in our database for station/object KD9YTS-13. If no packets are shown the sender has not sent any weather packets the latest 1 day(s).
| Time | Temp. | Humidity | Pressure | Rain* | Wind** | Luminosity | Snow |
|---|---|---|---|---|---|---|---|
| 1778048182 | -17.78° C | 100% | - | 0 mm | 0 m/s | - | - |
| 1778046983 | -17.78° C | 100% | - | 0 mm | 0 m/s | - | - |
| 1778045782 | -17.78° C | 100% | - | 0 mm | 0 m/s | - | - |
| 1778044582 | 1.11° C | 7% | - | 0 mm | 0 m/s | - | - |
| 1778043382 | -17.78° C | 100% | - | 0 mm | 0 m/s | - | - |
| 1778042182 | -17.78° C | 100% | - | 0 mm | 0 m/s | - | - |
| 1778040982 | -17.78° C | 100% | - | 0 mm | 0 m/s | - | - |
| 1778039784 | -17.78° C | 100% | - | 0 mm | 0 m/s | - | - |
| 1778038582 | 3.33° C | 6% | - | 0 mm | 0 m/s | - | - |
| 1778037384 | -17.78° C | 100% | - | 0 mm | 0 m/s | - | - |
| 1778036183 | -17.78° C | 100% | - | 0 mm | 0 m/s | - | - |
| 1778034982 | -17.78° C | 100% | - | 0 mm | 0 m/s | - | - |
| 1778033783 | 6.11° C | 5% | - | 0 mm | 0 m/s | - | - |
| 1778032583 | 6.11° C | 5% | - | 0 mm | 0 m/s | - | - |
| 1778031382 | -17.78° C | 100% | - | 0 mm | 0 m/s | - | - |
| 1778030182 | -17.78° C | 100% | - | 0 mm | 1.79 m/s, 297° | - | - |
| 1778028982 | -17.78° C | 100% | - | 0 mm | 0.45 m/s, 273° | - | - |
| 1778027783 | 7.22° C | 4% | - | 0 mm | 2.68 m/s, 0° | - | - |
| 1778026582 | -17.78° C | 100% | - | 0 mm | 3.58 m/s, 0° | - | - |
| 1778025382 | -17.78° C | 100% | - | 0 mm | 2.24 m/s, 0° | - | - |
| 1778024182 | -17.78° C | 100% | - | 0 mm | 3.13 m/s, 284° | - | - |
| 1778022982 | 7.78° C | 4% | - | 0 mm | 1.79 m/s, 0° | - | - |
| 1778021782 | 8.33° C | 4% | - | 0 mm | 1.79 m/s, 0° | - | - |
| 1778020582 | -17.78° C | 100% | - | 0 mm | 2.68 m/s, 0° | - | - |
| 1778019382 | -17.78° C | 100% | - | 0 mm | 2.24 m/s, 320° | - | - |
* Rain latest hour (hover to see other rain measurements)
** Current wind speed in m/s (hover to see current wind gust speed)